createdAt,value
2023-02-27T00:01:50.173Z,-1.41
2023-02-27T00:04:17.719Z,-1.42
2023-02-27T00:06:45.262Z,-1.43
2023-02-27T00:09:12.794Z,-1.45
2023-02-27T00:11:40.563Z,-1.46
2023-02-27T00:14:08.114Z,-1.48
2023-02-27T00:16:35.655Z,-1.49
2023-02-27T00:19:03.462Z,-1.50
2023-02-27T00:21:32.552Z,-1.51
2023-02-27T00:24:00.104Z,-1.51
2023-02-27T00:26:27.939Z,-1.51
2023-02-27T00:28:55.507Z,-1.51
2023-02-27T00:31:23.194Z,-1.51
2023-02-27T00:33:50.745Z,-1.51
2023-02-27T00:36:18.298Z,-1.50
2023-02-27T00:38:45.845Z,-1.50
2023-02-27T00:41:13.439Z,-1.50
2023-02-27T00:43:40.993Z,-1.50
2023-02-27T00:46:08.670Z,-1.51
2023-02-27T00:48:36.517Z,-1.51
2023-02-27T00:51:04.528Z,-1.53
2023-02-27T00:53:32.102Z,-1.53
2023-02-27T00:55:59.621Z,-1.54
2023-02-27T00:58:27.149Z,-1.54
2023-02-27T01:00:54.827Z,-1.56
2023-02-27T01:03:22.408Z,-1.57
2023-02-27T01:05:51.146Z,-1.58
2023-02-27T01:08:18.675Z,-1.59
2023-02-27T01:10:46.727Z,-1.61
2023-02-27T01:13:14.243Z,-1.62
2023-02-27T01:15:41.813Z,-1.64
2023-02-27T01:18:09.413Z,-1.64
2023-02-27T01:20:37.176Z,-1.65
2023-02-27T01:23:04.694Z,-1.66
2023-02-27T01:25:32.260Z,-1.66
2023-02-27T01:28:00.304Z,-1.67
2023-02-27T01:30:28.168Z,-1.67
2023-02-27T01:32:55.761Z,-1.66
2023-02-27T01:35:23.354Z,-1.66
2023-02-27T01:37:50.869Z,-1.65
2023-02-27T01:40:18.748Z,-1.65
2023-02-27T01:42:46.283Z,-1.65
2023-02-27T01:45:33.873Z,-1.67
2023-02-27T01:48:28.708Z,-1.67
2023-02-27T01:51:02.271Z,-1.68
2023-02-27T01:53:32.694Z,-1.68
2023-02-27T01:56:05.351Z,-1.68
2023-02-27T01:58:33.645Z,-1.68
2023-02-27T02:01:01.329Z,-1.66
2023-02-27T02:03:36.913Z,-1.65
2023-02-27T02:06:06.515Z,-1.64
2023-02-27T02:08:44.694Z,-1.62
2023-02-27T02:11:14.096Z,-1.60
2023-02-27T02:13:42.344Z,-1.58
2023-02-27T02:16:24.248Z,-1.57
2023-02-27T02:19:10.046Z,-1.55
2023-02-27T02:22:08.671Z,-1.54
2023-02-27T02:24:54.170Z,-1.52
2023-02-27T02:27:30.647Z,-1.51
2023-02-27T02:30:21.634Z,-1.47
2023-02-27T02:33:29.064Z,-1.45
2023-02-27T02:36:28.968Z,-1.44
2023-02-27T02:39:08.491Z,-1.44
2023-02-27T02:41:54.389Z,-1.44
2023-02-27T02:44:59.812Z,-1.43
2023-02-27T02:47:51.421Z,-1.42
2023-02-27T02:50:36.353Z,-1.42
2023-02-27T02:53:14.557Z,-1.42
2023-02-27T02:56:20.994Z,-1.42
2023-02-27T02:59:17.727Z,-1.42
2023-02-27T03:02:01.259Z,-1.42
2023-02-27T03:04:38.140Z,-1.42
2023-02-27T03:07:14.749Z,-1.42
2023-02-27T03:10:05.261Z,-1.42
2023-02-27T03:12:35.531Z,-1.43
2023-02-27T03:15:11.115Z,-1.43
2023-02-27T03:17:55.304Z,-1.44
2023-02-27T03:20:31.453Z,-1.44
2023-02-27T03:23:05.054Z,-1.45
2023-02-27T03:25:34.538Z,-1.45
2023-02-27T03:28:10.669Z,-1.45
2023-02-27T03:30:54.691Z,-1.46
2023-02-27T03:33:28.835Z,-1.47
2023-02-27T03:36:08.268Z,-1.48
2023-02-27T03:39:14.573Z,-1.48
2023-02-27T03:41:57.431Z,-1.50
2023-02-27T03:44:43.889Z,-1.51
2023-02-27T03:47:11.600Z,-1.51
2023-02-27T03:49:39.233Z,-1.51
2023-02-27T03:52:06.912Z,-1.52
2023-02-27T03:54:45.752Z,-1.52
2023-02-27T03:57:13.271Z,-1.52
2023-02-27T03:59:41.547Z,-1.51
2023-02-27T04:02:09.466Z,-1.52
2023-02-27T04:04:37.030Z,-1.52
2023-02-27T04:07:29.391Z,-1.53
2023-02-27T04:09:56.923Z,-1.52
2023-02-27T04:12:52.880Z,-1.52
2023-02-27T04:15:42.158Z,-1.52
2023-02-27T04:18:33.491Z,-1.52
2023-02-27T04:21:09.940Z,-1.52
2023-02-27T04:23:53.468Z,-1.53
2023-02-27T04:26:52.710Z,-1.54
2023-02-27T04:29:28.743Z,-1.55
2023-02-27T04:32:13.468Z,-1.55
2023-02-27T04:34:48.348Z,-1.55
2023-02-27T04:37:35.640Z,-1.55
2023-02-27T04:40:11.199Z,-1.55
2023-02-27T04:42:44.810Z,-1.55
2023-02-27T04:45:16.745Z,-1.55
2023-02-27T04:47:51.542Z,-1.55
2023-02-27T04:50:25.640Z,-1.55
2023-02-27T04:52:59.926Z,-1.55
2023-02-27T04:55:33.271Z,-1.55
2023-02-27T04:58:09.222Z,-1.55
2023-02-27T05:00:40.034Z,-1.54
2023-02-27T05:03:30.532Z,-1.53
2023-02-27T05:06:00.663Z,-1.52
2023-02-27T05:08:28.227Z,-1.51
2023-02-27T05:11:07.652Z,-1.51
2023-02-27T05:13:43.481Z,-1.50
2023-02-27T05:16:20.300Z,-1.50
2023-02-27T05:18:48.992Z,-1.50
2023-02-27T05:21:35.611Z,-1.51
2023-02-27T05:24:06.113Z,-1.50
2023-02-27T05:26:33.521Z,-1.50
2023-02-27T05:29:36.110Z,-1.51
2023-02-27T05:32:25.349Z,-1.52
2023-02-27T05:35:01.974Z,-1.52
2023-02-27T05:37:43.335Z,-1.53
2023-02-27T05:40:15.384Z,-1.53
2023-02-27T05:42:55.350Z,-1.54
2023-02-27T05:45:27.562Z,-1.54
2023-02-27T05:48:05.689Z,-1.53
2023-02-27T05:50:35.132Z,-1.52
2023-02-27T05:53:06.960Z,-1.51
2023-02-27T05:55:39.194Z,-1.50
2023-02-27T05:58:39.097Z,-1.48
2023-02-27T06:01:08.765Z,-1.47
2023-02-27T06:03:39.862Z,-1.44
2023-02-27T06:06:12.238Z,-1.43
2023-02-27T06:08:39.911Z,-1.43
2023-02-27T06:11:07.653Z,-1.38
2023-02-27T06:13:35.171Z,-1.34
2023-02-27T06:16:02.843Z,-1.31
2023-02-27T06:18:30.435Z,-1.30
2023-02-27T06:20:58.070Z,-1.25
2023-02-27T06:23:25.651Z,-1.21
2023-02-27T06:25:53.208Z,-1.18
2023-02-27T06:28:20.771Z,-1.16
2023-02-27T06:30:52.373Z,-1.13
2023-02-27T06:33:19.914Z,-1.08
2023-02-27T06:35:48.560Z,-1.03
2023-02-27T06:38:16.125Z,-0.99
2023-02-27T06:40:43.878Z,-0.94
2023-02-27T06:43:11.404Z,-0.88
2023-02-27T06:45:39.087Z,-0.82
2023-02-27T06:48:06.727Z,-0.77
2023-02-27T06:50:34.254Z,-0.71
2023-02-27T06:53:01.768Z,-0.66
2023-02-27T06:55:29.302Z,-0.62
2023-02-27T06:57:56.862Z,-0.58
2023-02-27T07:00:24.454Z,-0.50
2023-02-27T07:02:52.037Z,-0.43
2023-02-27T07:05:19.633Z,-0.36
2023-02-27T07:07:47.382Z,-0.29
2023-02-27T07:10:14.920Z,-0.26
2023-02-27T07:12:42.458Z,-0.23
2023-02-27T07:15:10.779Z,-0.19
2023-02-27T07:17:38.466Z,-0.15
2023-02-27T07:20:07.755Z,-0.09
2023-02-27T07:22:35.320Z,-0.03
2023-02-27T07:25:03.404Z,0.04
2023-02-27T07:27:31.469Z,0.07
2023-02-27T07:29:59.246Z,0.10
2023-02-27T07:32:27.563Z,0.10
2023-02-27T07:34:55.136Z,0.10
2023-02-27T07:37:22.710Z,0.10
2023-02-27T07:39:50.217Z,0.13
2023-02-27T07:42:17.742Z,0.20
2023-02-27T07:44:45.271Z,0.28
2023-02-27T07:47:12.845Z,0.37
2023-02-27T07:49:40.506Z,0.46
2023-02-27T07:52:08.076Z,0.54
2023-02-27T07:54:35.851Z,0.64
2023-02-27T07:57:04.925Z,0.73
2023-02-27T07:59:33.015Z,0.78
2023-02-27T08:02:00.550Z,0.78
2023-02-27T08:04:28.122Z,0.78
2023-02-27T08:06:55.699Z,0.80
2023-02-27T08:09:23.304Z,0.83
2023-02-27T08:11:50.823Z,0.89
2023-02-27T08:14:18.337Z,1.00
2023-02-27T08:16:45.913Z,1.11
2023-02-27T08:19:14.420Z,1.18
2023-02-27T08:21:42.012Z,1.24
2023-02-27T08:24:09.615Z,1.29
2023-02-27T08:26:37.481Z,1.35
2023-02-27T08:29:05.214Z,1.31
2023-02-27T08:31:32.838Z,1.26
2023-02-27T08:34:09.917Z,1.21
2023-02-27T08:36:38.859Z,1.18
2023-02-27T08:39:07.990Z,1.16
2023-02-27T08:41:35.890Z,1.17
2023-02-27T08:44:03.696Z,1.16
2023-02-27T08:46:31.450Z,1.20
2023-02-27T08:48:59.095Z,1.33
2023-02-27T08:51:26.977Z,1.44
2023-02-27T08:53:54.758Z,1.54
2023-02-27T08:56:22.311Z,1.64
2023-02-27T08:58:49.816Z,1.71
2023-02-27T09:01:17.909Z,1.69
2023-02-27T09:03:45.620Z,1.61
2023-02-27T09:06:13.638Z,1.57
2023-02-27T09:08:41.157Z,1.56
2023-02-27T09:11:08.745Z,1.53
2023-02-27T09:13:36.311Z,1.51
2023-02-27T09:16:04.038Z,1.42
2023-02-27T09:18:31.631Z,1.31
2023-02-27T09:20:59.968Z,1.19
2023-02-27T09:23:27.538Z,1.04
2023-02-27T09:25:55.048Z,0.93
2023-02-27T09:28:22.605Z,0.83
2023-02-27T09:30:50.169Z,0.72
2023-02-27T09:33:17.732Z,0.54
2023-02-27T09:35:45.248Z,0.39
2023-02-27T09:38:12.837Z,0.28
2023-02-27T09:40:43.373Z,0.24
2023-02-27T09:43:16.563Z,0.26
2023-02-27T09:45:46.883Z,0.29
2023-02-27T09:48:14.318Z,0.43
2023-02-27T09:50:48.641Z,0.68
2023-02-27T09:53:27.209Z,1.00
2023-02-27T09:56:01.759Z,1.37
2023-02-27T09:58:40.492Z,1.79
2023-02-27T10:01:40.611Z,2.27
2023-02-27T10:04:34.223Z,2.87
2023-02-27T10:07:26.209Z,3.28
2023-02-27T10:10:02.612Z,3.28
2023-02-27T10:12:36.174Z,3.24
2023-02-27T10:15:17.434Z,3.18
2023-02-27T10:17:51.168Z,3.11
2023-02-27T10:20:43.775Z,3.12
2023-02-27T10:23:18.745Z,3.14
2023-02-27T10:25:51.788Z,3.17
2023-02-27T10:28:21.829Z,3.17
2023-02-27T10:30:53.019Z,3.18
2023-02-27T10:33:29.589Z,3.25
2023-02-27T10:35:57.192Z,3.36
2023-02-27T10:38:34.036Z,3.47
2023-02-27T10:41:03.515Z,3.60
2023-02-27T10:43:31.140Z,3.70
2023-02-27T10:46:03.720Z,3.79
2023-02-27T10:48:34.131Z,3.86
2023-02-27T10:51:24.555Z,3.88
2023-02-27T10:54:12.186Z,3.73
2023-02-27T10:56:40.029Z,3.66
2023-02-27T10:59:21.896Z,4.49
2023-02-27T11:01:54.363Z,5.48
2023-02-27T11:04:46.117Z,6.17
2023-02-27T11:07:14.104Z,6.77
2023-02-27T11:09:41.642Z,7.02
2023-02-27T11:12:28.742Z,7.64
2023-02-27T11:14:59.087Z,8.56
2023-02-27T11:17:32.654Z,8.33
2023-02-27T11:20:02.289Z,7.73
2023-02-27T11:22:31.593Z,7.40
2023-02-27T11:25:18.577Z,7.09
2023-02-27T11:27:47.037Z,6.81
2023-02-27T11:30:25.498Z,6.77
2023-02-27T11:32:56.659Z,7.18
2023-02-27T11:35:26.353Z,7.80
2023-02-27T11:37:56.905Z,7.01
2023-02-27T11:40:31.414Z,6.12
2023-02-27T11:43:05.047Z,5.38
2023-02-27T11:46:08.047Z,4.81
2023-02-27T11:48:47.259Z,4.29
2023-02-27T11:51:54.489Z,3.97
2023-02-27T11:54:40.814Z,3.81
2023-02-27T11:57:38.311Z,3.87
2023-02-27T12:00:20.529Z,4.25
2023-02-27T12:02:53.740Z,5.16
2023-02-27T12:05:29.720Z,6.92
2023-02-27T12:08:02.557Z,8.68
2023-02-27T12:10:37.493Z,10.42
2023-02-27T12:13:17.111Z,10.55
2023-02-27T12:15:50.659Z,9.76
2023-02-27T12:18:34.099Z,8.88
2023-02-27T12:21:06.867Z,7.91
2023-02-27T12:23:41.536Z,7.05
2023-02-27T12:26:24.737Z,6.42
2023-02-27T12:29:17.632Z,6.01
2023-02-27T12:31:52.924Z,6.09
2023-02-27T12:34:28.643Z,6.83
2023-02-27T12:37:04.261Z,7.88
2023-02-27T12:39:32.634Z,7.45
2023-02-27T12:42:32.570Z,6.95
2023-02-27T12:45:09.444Z,6.24
2023-02-27T12:47:42.820Z,5.75
2023-02-27T12:50:16.854Z,5.38
2023-02-27T12:53:13.339Z,5.12
2023-02-27T12:55:50.095Z,5.04
2023-02-27T12:58:46.348Z,5.11
2023-02-27T13:01:26.455Z,5.00
2023-02-27T13:04:15.118Z,4.86
2023-02-27T13:06:52.906Z,4.50
2023-02-27T13:09:33.542Z,4.17
2023-02-27T13:12:15.037Z,3.92
2023-02-27T13:14:49.688Z,3.88
2023-02-27T13:17:39.550Z,3.93
2023-02-27T13:20:22.333Z,4.07
2023-02-27T13:23:27.767Z,4.40
2023-02-27T13:25:58.953Z,5.47
2023-02-27T13:28:29.205Z,6.49
2023-02-27T13:31:39.470Z,7.10
2023-02-27T13:34:31.204Z,6.69
2023-02-27T13:37:09.400Z,6.01
2023-02-27T13:39:51.498Z,5.58
2023-02-27T13:42:28.307Z,5.46
2023-02-27T13:45:00.876Z,5.73
2023-02-27T13:47:28.400Z,6.29
2023-02-27T13:50:22.814Z,7.04
2023-02-27T13:52:51.149Z,8.39
2023-02-27T13:55:28.413Z,9.81
2023-02-27T13:57:58.428Z,11.35
2023-02-27T14:00:28.811Z,12.70
2023-02-27T14:03:20.205Z,14.04
2023-02-27T14:05:51.528Z,15.09
2023-02-27T14:08:32.379Z,14.69
2023-02-27T14:11:27.938Z,13.44
2023-02-27T14:13:55.588Z,12.25
2023-02-27T14:16:38.422Z,11.71
2023-02-27T14:19:21.011Z,11.55
2023-02-27T14:22:02.484Z,10.27
2023-02-27T14:24:49.575Z,8.47
2023-02-27T14:27:52.532Z,7.00
2023-02-27T14:30:34.497Z,5.91
2023-02-27T14:33:33.324Z,5.08
2023-02-27T14:36:09.415Z,4.26
2023-02-27T14:38:38.393Z,3.62
2023-02-27T14:41:10.678Z,3.12
2023-02-27T14:43:42.838Z,2.76
2023-02-27T14:46:24.392Z,2.54
2023-02-27T14:49:35.328Z,2.35
2023-02-27T14:52:24.612Z,2.26
2023-02-27T14:54:52.959Z,2.19
2023-02-27T14:57:26.764Z,2.16
2023-02-27T14:59:54.609Z,2.13
2023-02-27T15:02:25.566Z,2.12
2023-02-27T15:05:02.004Z,2.14
2023-02-27T15:07:31.436Z,2.11
2023-02-27T15:10:04.197Z,1.99
2023-02-27T15:12:37.342Z,1.90
2023-02-27T15:15:06.900Z,1.82
2023-02-27T15:17:43.642Z,1.71
2023-02-27T15:20:30.741Z,1.57
2023-02-27T15:23:20.844Z,1.43
2023-02-27T15:25:48.460Z,1.34
2023-02-27T15:28:26.277Z,1.24
2023-02-27T15:30:56.270Z,1.09
2023-02-27T15:33:28.463Z,0.99
2023-02-27T15:35:57.053Z,0.91
2023-02-27T15:38:30.711Z,0.83
2023-02-27T15:41:00.430Z,0.74
2023-02-27T15:43:29.448Z,0.66
2023-02-27T15:45:57.865Z,0.59
2023-02-27T15:48:28.146Z,0.48
2023-02-27T15:51:01.949Z,0.38
2023-02-27T15:53:30.955Z,0.26
2023-02-27T15:56:01.885Z,0.15
2023-02-27T15:58:33.464Z,0.05
2023-02-27T16:01:19.096Z,-0.04
2023-02-27T16:03:49.097Z,-0.11
2023-02-27T16:06:21.798Z,-0.17
2023-02-27T16:08:58.722Z,-0.25
2023-02-27T16:11:34.831Z,-0.32
2023-02-27T16:14:03.656Z,-0.41
2023-02-27T16:16:38.075Z,-0.48
2023-02-27T16:19:25.154Z,-0.55
2023-02-27T16:22:13.806Z,-0.61
2023-02-27T16:24:41.764Z,-0.68
2023-02-27T16:27:27.025Z,-0.71
2023-02-27T16:29:57.691Z,-0.74
2023-02-27T16:32:32.150Z,-0.78
2023-02-27T16:35:03.737Z,-0.83
2023-02-27T16:37:39.450Z,-0.88
2023-02-27T16:40:14.749Z,-0.94
2023-02-27T16:42:43.366Z,-0.99
2023-02-27T16:45:16.718Z,-1.03
2023-02-27T16:47:45.282Z,-1.08
2023-02-27T16:50:21.826Z,-1.11
2023-02-27T16:52:49.390Z,-1.15
2023-02-27T16:55:17.065Z,-1.17
2023-02-27T16:57:44.672Z,-1.20
2023-02-27T17:00:14.600Z,-1.23
2023-02-27T17:02:42.200Z,-1.27
2023-02-27T17:05:10.973Z,-1.29
2023-02-27T17:07:38.825Z,-1.32
2023-02-27T17:10:07.002Z,-1.35
2023-02-27T17:12:34.693Z,-1.38
2023-02-27T17:15:02.303Z,-1.40
2023-02-27T17:17:29.819Z,-1.41
2023-02-27T17:19:57.374Z,-1.41
2023-02-27T17:22:24.923Z,-1.41
2023-02-27T17:24:52.533Z,-1.38
2023-02-27T17:27:20.156Z,-1.36
2023-02-27T17:29:47.711Z,-1.32
2023-02-27T17:32:15.306Z,-1.29
2023-02-27T17:34:42.841Z,-1.25
2023-02-27T17:37:10.532Z,-1.21
2023-02-27T17:39:38.518Z,-1.18
2023-02-27T17:42:06.045Z,-1.14
2023-02-27T17:44:33.610Z,-1.11
2023-02-27T17:47:01.133Z,-1.08
2023-02-27T17:49:28.642Z,-1.05
2023-02-27T17:51:56.216Z,-1.03
2023-02-27T17:54:23.947Z,-1.00
2023-02-27T17:56:51.684Z,-0.99
2023-02-27T17:59:19.320Z,-0.98
2023-02-27T18:01:47.054Z,-0.96
2023-02-27T18:04:14.744Z,-0.95
2023-02-27T18:06:42.282Z,-0.94
2023-02-27T18:09:10.850Z,-0.91
2023-02-27T18:11:38.456Z,-0.90
2023-02-27T18:14:06.235Z,-0.89
2023-02-27T18:16:34.323Z,-0.88
2023-02-27T18:19:03.858Z,-0.87
2023-02-27T18:21:32.635Z,-0.86
2023-02-27T18:24:00.581Z,-0.85
2023-02-27T18:26:31.232Z,-0.84
2023-02-27T18:29:05.821Z,-0.84
2023-02-27T18:31:45.174Z,-0.84
2023-02-27T18:34:13.369Z,-0.83
2023-02-27T18:36:41.885Z,-0.83
2023-02-27T18:39:10.318Z,-0.83
2023-02-27T18:41:38.863Z,-0.83
2023-02-27T18:44:07.952Z,-0.83
2023-02-27T18:46:37.462Z,-0.83
2023-02-27T18:49:05.108Z,-0.82
2023-02-27T18:51:32.677Z,-0.83
2023-02-27T18:54:00.345Z,-0.83
2023-02-27T18:56:28.511Z,-0.83
2023-02-27T18:58:57.734Z,-0.83
2023-02-27T19:01:30.134Z,-0.83
2023-02-27T19:03:59.591Z,-0.84
2023-02-27T19:06:28.003Z,-0.84
2023-02-27T19:08:55.834Z,-0.84
2023-02-27T19:11:24.703Z,-0.84
2023-02-27T19:13:52.555Z,-0.84
2023-02-27T19:16:20.348Z,-0.84
2023-02-27T19:18:47.985Z,-0.85
2023-02-27T19:21:15.743Z,-0.83
2023-02-27T19:23:43.394Z,-0.83
2023-02-27T19:26:11.350Z,-0.84
2023-02-27T19:28:39.106Z,-0.84
2023-02-27T19:31:09.347Z,-0.84
2023-02-27T19:33:37.054Z,-0.84
2023-02-27T19:36:06.511Z,-0.85
2023-02-27T19:38:34.156Z,-0.85
2023-02-27T19:41:03.338Z,-0.86
2023-02-27T19:43:31.108Z,-0.87
2023-02-27T19:45:58.657Z,-0.87
2023-02-27T19:48:26.286Z,-0.88
2023-02-27T19:50:53.873Z,-0.89
2023-02-27T19:53:21.383Z,-0.89
2023-02-27T19:56:00.817Z,-0.89
2023-02-27T19:58:29.092Z,-0.89
2023-02-27T20:00:56.896Z,-0.89
2023-02-27T20:03:24.534Z,-0.89
2023-02-27T20:05:52.103Z,-0.89
2023-02-27T20:08:19.640Z,-0.88
2023-02-27T20:10:55.050Z,-0.88
2023-02-27T20:13:23.119Z,-0.88
2023-02-27T20:16:03.122Z,-0.89
2023-02-27T20:18:32.010Z,-0.90
2023-02-27T20:21:00.527Z,-0.92
2023-02-27T20:23:28.202Z,-0.92
2023-02-27T20:25:55.728Z,-0.93
2023-02-27T20:28:23.645Z,-0.93
2023-02-27T20:30:51.382Z,-0.94
2023-02-27T20:33:18.946Z,-0.93
2023-02-27T20:35:46.587Z,-0.92
2023-02-27T20:38:14.362Z,-0.93
2023-02-27T20:40:42.094Z,-0.93
2023-02-27T20:43:09.638Z,-0.93
2023-02-27T20:45:40.408Z,-0.94
2023-02-27T20:48:08.046Z,-0.94
2023-02-27T20:50:35.619Z,-0.94
2023-02-27T20:53:03.150Z,-0.94
2023-02-27T20:55:30.700Z,-0.95
2023-02-27T20:57:59.826Z,-0.94
2023-02-27T21:00:27.489Z,-0.95
2023-02-27T21:02:55.086Z,-0.95
2023-02-27T21:05:22.652Z,-0.96
2023-02-27T21:07:50.256Z,-0.95
2023-02-27T21:10:18.069Z,-0.95
2023-02-27T21:12:45.604Z,-0.95
2023-02-27T21:15:13.592Z,-0.95
2023-02-27T21:17:41.202Z,-0.95
2023-02-27T21:20:09.509Z,-0.95
2023-02-27T21:22:37.039Z,-0.94
2023-02-27T21:25:04.879Z,-0.95
2023-02-27T21:27:32.444Z,-0.95
2023-02-27T21:29:59.999Z,-0.95
2023-02-27T21:32:27.617Z,-0.93
2023-02-27T21:34:55.153Z,-0.93
2023-02-27T21:37:22.685Z,-0.93
2023-02-27T21:39:50.253Z,-0.94
2023-02-27T21:42:18.533Z,-0.94
2023-02-27T21:44:46.151Z,-0.95
2023-02-27T21:47:13.777Z,-0.96
2023-02-27T21:49:41.346Z,-0.96
2023-02-27T21:52:08.898Z,-0.97
2023-02-27T21:54:37.054Z,-0.98
2023-02-27T21:57:05.034Z,-0.98
2023-02-27T21:59:32.586Z,-0.99
2023-02-27T22:02:00.226Z,-0.98
2023-02-27T22:04:27.809Z,-0.98
2023-02-27T22:06:55.389Z,-0.98
2023-02-27T22:09:22.926Z,-0.98
2023-02-27T22:11:50.560Z,-0.98
2023-02-27T22:14:18.581Z,-0.98
2023-02-27T22:16:46.220Z,-0.98
2023-02-27T22:19:16.041Z,-0.98
2023-02-27T22:21:43.580Z,-0.97
2023-02-27T22:24:11.640Z,-0.98
2023-02-27T22:26:39.359Z,-0.98
2023-02-27T22:29:07.406Z,-0.97
2023-02-27T22:31:37.365Z,-0.98
2023-02-27T22:34:07.918Z,-0.99
2023-02-27T22:36:35.818Z,-0.99
2023-02-27T22:39:04.889Z,-1.00
2023-02-27T22:41:35.857Z,-1.01
2023-02-27T22:44:04.224Z,-1.00
2023-02-27T22:46:35.209Z,-1.00
2023-02-27T22:49:10.041Z,-1.01
2023-02-27T22:51:37.817Z,-1.02
2023-02-27T22:54:06.747Z,-1.01
2023-02-27T22:56:34.945Z,-1.01
2023-02-27T22:59:03.802Z,-1.01
2023-02-27T23:01:33.437Z,-1.02
2023-02-27T23:04:04.028Z,-1.02
2023-02-27T23:06:33.001Z,-1.02
2023-02-27T23:09:01.287Z,-1.03
2023-02-27T23:11:29.195Z,-1.04
2023-02-27T23:13:57.088Z,-1.04
2023-02-27T23:16:25.979Z,-1.05
2023-02-27T23:18:56.410Z,-1.04
2023-02-27T23:21:30.185Z,-1.04
2023-02-27T23:23:58.018Z,-1.03
2023-02-27T23:26:25.855Z,-1.04
2023-02-27T23:28:53.460Z,-1.05
2023-02-27T23:31:21.107Z,-1.06
2023-02-27T23:33:48.682Z,-1.07
2023-02-27T23:36:17.160Z,-1.08
2023-02-27T23:38:44.732Z,-1.09
2023-02-27T23:41:12.776Z,-1.09
2023-02-27T23:43:40.458Z,-1.09
2023-02-27T23:46:10.201Z,-1.10
2023-02-27T23:48:38.206Z,-1.10
2023-02-27T23:51:07.001Z,-1.11
2023-02-27T23:53:35.690Z,-1.11
2023-02-27T23:56:21.040Z,-1.11
2023-02-27T23:58:56.585Z,-1.11
